Andover, Minnesota
Current Conditions -  °F | °C
As of 8:45 AM on Saturday 20 Dec 2014 (Local Time) from KANE Reporting Station
Haze Haze  
Wind Chill: 26°   Ceiling: 1000
Heat Index: 32°   Visibility: 4mi
Dew Point: 30°   Wind: 7mph
Humidity: 93%   Direction: 140°SE
Pressure: 30.14"   Gusts: NA
Location:  45.24°N, 93.31°W
Report Text: KANE 201445Z 14006KT 4SM BR OVC010 00/M01 A3014
Loading
Personal Weather Stations






























Interactive Weather Map New forecast layout! Learn more

10-Day Weather Forecast

Advertisements
Track Severe Weather on mobile